This is the latest recevied weather packets stored in our database for station/object 5B4APJ-13. If no packets are shown the sender has not sent any weather packets the latest 10 day(s).
| Time | Temp. | Humidity | Pressure | Rain* | Wind** | Luminosity | Snow |
|---|---|---|---|---|---|---|---|
| 1777528328 | 20.56° C | 63% | 1016.1 hPa | 0 mm | 0.89 m/s, 69° | 380 W/m² | - |
| 1777528027 | 20.56° C | 62% | 1015.9 hPa | 0 mm | 0.89 m/s, 109° | 367 W/m² | - |
| 1777527728 | 20.56° C | 61% | 1015.9 hPa | 0 mm | 0.45 m/s, 82° | 355 W/m² | - |
| 1777527428 | 20.56° C | 62% | 1016.2 hPa | 0 mm | 0.89 m/s, 91° | 340 W/m² | - |
| 1777527128 | 20.56° C | 61% | 1016.1 hPa | 0 mm | 0.89 m/s, 84° | 323 W/m² | - |
| 1777526828 | 20.56° C | 62% | 1016.1 hPa | 0 mm | 0.45 m/s, 92° | 311 W/m² | - |
| 1777526528 | 19.44° C | 66% | 1016.1 hPa | 0 mm | 0 m/s | 296 W/m² | - |
| 1777526228 | 19.44° C | 67% | 1016 hPa | 0 mm | 0 m/s | 284 W/m² | - |
| 1777525928 | 18.33° C | 68% | 1015.9 hPa | 0 mm | 0.45 m/s, 82° | 269 W/m² | - |
| 1777525628 | 17.78° C | 71% | 1016.1 hPa | 0 mm | 0.89 m/s, 93° | 255 W/m² | - |
| 1777525328 | 17.22° C | 73% | 1016.1 hPa | 0 mm | 1.34 m/s, 32° | 240 W/m² | - |
| 1777525028 | 17.22° C | 74% | 1016.1 hPa | 0 mm | 0.89 m/s, 68° | 225 W/m² | - |
| 1777524728 | 16.67° C | 75% | 1015.9 hPa | 0 mm | 0.45 m/s, 72° | 210 W/m² | - |
| 1777524428 | 16.67° C | 73% | 1016.4 hPa | 0 mm | 0.89 m/s, 40° | 197 W/m² | - |
| 1777524128 | 17.22° C | 72% | 1016.1 hPa | 0 mm | 0.45 m/s, 79° | 183 W/m² | - |
| 1777523828 | 17.78° C | 71% | 1016 hPa | 0 mm | 0.89 m/s, 70° | 171 W/m² | - |
| 1777523528 | 18.33° C | 70% | 1015.9 hPa | 0 mm | 0.89 m/s, 77° | 159 W/m² | - |
| 1777523228 | 17.78° C | 70% | 1015.7 hPa | 0 mm | 0 m/s | 149 W/m² | - |
| 1777522928 | 17.78° C | 69% | 1015.7 hPa | 0 mm | 0.45 m/s, 109° | 137 W/m² | - |
| 1777522628 | 17.22° C | 70% | 1016.1 hPa | 0 mm | 0 m/s | 124 W/m² | - |
| 1777522328 | 16.67° C | 71% | 1016 hPa | 0 mm | 0 m/s | 112 W/m² | - |
| 1777522028 | 16.67° C | 72% | 1016.1 hPa | 0 mm | 0.45 m/s, 108° | 101 W/m² | - |
| 1777521728 | 16.67° C | 74% | 1015.9 hPa | 0 mm | 0.45 m/s, 109° | 90 W/m² | - |
| 1777521428 | 16.11° C | 74% | 1015.6 hPa | 0 mm | 0 m/s | 80 W/m² | - |
| 1777521128 | 16.11° C | 75% | 1015.7 hPa | 0 mm | 0 m/s | 71 W/m² | - |
* Rain latest hour (hover to see other rain measurements)
** Current wind speed in m/s (hover to see current wind gust speed)